Time;durP1;ratioP1;P1;durP2;ratioP2;P2;SDS_P1;SDS_P2;PMS_P1;PMS_P2;Temp;Humidity;BMP_temperature;BMP_pressure;BME280_temperature;BME280_humidity;BME280_pressure;Samples;Min_cycle;Max_cycle;Signal;HPM_P1;HPM_P2
2022/07/11 00:01:15;;;;;;;8.32;6.07;;;;;;;15.21;100.00;102238.00;5238060;28;20021;-69
2022/07/11 00:03:46;;;;;;;13.88;6.78;;;;;;;15.19;100.00;102239.94;5229243;28;20037;-69
2022/07/11 00:06:17;;;;;;;10.98;5.93;;;;;;;15.16;100.00;102232.94;5229559;28;20033;-69
2022/07/11 00:08:49;;;;;;;10.10;5.90;;;;;;;15.17;100.00;102233.78;5223380;28;20079;-70
2022/07/11 00:11:20;;;;;;;10.23;6.10;;;;;;;15.16;100.00;102241.00;5235374;28;20045;-69
2022/07/11 00:13:51;;;;;;;12.00;6.80;;;;;;;15.14;100.00;102239.41;5241826;28;20224;-69
2022/07/11 00:16:23;;;;;;;10.13;6.25;;;;;;;15.07;100.00;102229.13;5238961;28;20029;-69
2022/07/11 00:18:54;;;;;;;10.65;6.60;;;;;;;15.03;100.00;102235.69;5240469;28;20115;-69
2022/07/11 00:21:25;;;;;;;8.95;6.05;;;;;;;14.99;100.00;102238.69;5242895;28;20450;-69
2022/07/11 00:23:57;;;;;;;13.93;6.25;;;;;;;15.00;100.00;102233.22;5241539;28;20498;-69
2022/07/11 00:26:28;;;;;;;13.05;7.15;;;;;;;14.98;100.00;102226.25;5237501;28;20072;-70
2022/07/11 00:29:00;;;;;;;12.63;5.95;;;;;;;15.02;100.00;102217.84;5240356;28;20163;-69
2022/07/11 00:31:32;;;;;;;8.15;5.78;;;;;;;15.03;100.00;102214.19;5242646;28;20029;-69
2022/07/11 00:34:03;;;;;;;9.27;6.00;;;;;;;14.89;100.00;102208.97;5234149;28;20388;-69
2022/07/11 00:36:35;;;;;;;10.20;5.90;;;;;;;14.85;100.00;102212.84;5239728;28;20417;-70
2022/07/11 00:39:06;;;;;;;10.10;6.18;;;;;;;14.84;100.00;102213.78;5243095;28;20368;-69
2022/07/11 00:41:38;;;;;;;10.32;6.32;;;;;;;14.76;100.00;102214.34;5242131;28;20075;-69
2022/07/11 00:44:09;;;;;;;10.18;5.70;;;;;;;14.78;100.00;102217.78;5235164;28;20533;-69
2022/07/11 00:46:41;;;;;;;9.63;6.13;;;;;;;14.77;100.00;102220.63;5236534;28;20033;-69
2022/07/11 00:49:12;;;;;;;10.40;6.10;;;;;;;14.78;100.00;102214.25;5236574;28;20570;-69
2022/07/11 00:51:44;;;;;;;10.45;6.53;;;;;;;14.72;100.00;102220.06;5241591;28;20029;-69
2022/07/11 00:54:16;;;;;;;12.05;6.22;;;;;;;14.68;100.00;102216.75;5238072;28;20040;-69
2022/07/11 00:56:48;;;;;;;12.27;6.95;;;;;;;14.63;100.00;102221.56;5244051;28;20823;-69
2022/07/11 00:59:20;;;;;;;11.60;7.38;;;;;;;14.58;100.00;102213.88;5240268;28;20049;-69
2022/07/11 01:01:51;;;;;;;11.15;7.25;;;;;;;14.57;100.00;102216.66;5247993;28;20033;-69
2022/07/11 01:04:22;;;;;;;10.57;7.10;;;;;;;14.54;100.00;102209.66;5247370;28;20053;-69
2022/07/11 01:06:54;;;;;;;8.68;6.65;;;;;;;14.53;100.00;102207.91;5232338;28;20028;-69
2022/07/11 01:09:25;;;;;;;9.88;7.25;;;;;;;14.50;100.00;102208.16;5232829;28;20064;-69
2022/07/11 01:11:57;;;;;;;15.63;8.27;;;;;;;14.48;100.00;102212.78;5234034;28;20732;-69
2022/07/11 01:14:29;;;;;;;11.63;7.55;;;;;;;14.45;100.00;102213.00;5232043;28;20052;-69
2022/07/11 01:17:00;;;;;;;12.38;7.07;;;;;;;14.44;100.00;102213.94;5237693;28;20031;-70
2022/07/11 01:19:31;;;;;;;15.00;8.23;;;;;;;14.41;100.00;102215.03;5234916;28;20043;-70
2022/07/11 01:22:04;;;;;;;11.32;7.82;;;;;;;14.37;100.00;102210.84;5236150;28;20028;-69
2022/07/11 01:24:36;;;;;;;14.65;7.88;;;;;;;14.34;100.00;102205.69;5240464;28;20600;-69
2022/07/11 01:27:08;;;;;;;13.25;8.18;;;;;;;14.31;100.00;102200.53;5241593;28;20148;-70
2022/07/11 01:29:39;;;;;;;14.00;7.68;;;;;;;14.27;100.00;102210.63;5237579;28;20029;-69
2022/07/11 01:32:11;;;;;;;14.30;7.80;;;;;;;14.28;100.00;102206.97;5241492;28;20051;-69
2022/07/11 01:34:42;;;;;;;12.60;8.27;;;;;;;14.27;100.00;102207.09;5240204;28;20037;-69
2022/07/11 01:37:13;;;;;;;12.13;8.23;;;;;;;14.23;100.00;102206.47;5235568;28;20060;-69
2022/07/11 01:39:44;;;;;;;14.32;8.32;;;;;;;14.20;100.00;102206.66;5239982;28;20027;-70
2022/07/11 01:42:16;;;;;;;13.57;8.57;;;;;;;14.15;100.00;102205.25;5237687;28;20017;-68
2022/07/11 01:44:47;;;;;;;16.17;9.23;;;;;;;14.15;100.00;102195.38;5231449;28;20051;-70
2022/07/11 01:47:18;;;;;;;14.13;9.88;;;;;;;14.14;100.00;102211.63;5233446;28;20033;-70
2022/07/11 01:49:49;;;;;;;15.45;9.98;;;;;;;14.12;100.00;102211.72;5234802;28;20399;-69
2022/07/11 01:52:21;;;;;;;15.23;9.30;;;;;;;14.08;100.00;102224.47;5235717;28;20033;-69
2022/07/11 01:54:52;;;;;;;13.20;8.68;;;;;;;14.08;100.00;102219.13;5236309;28;20174;-69
2022/07/11 01:57:24;;;;;;;17.17;9.63;;;;;;;14.03;100.00;102225.78;5231381;28;20047;-69
2022/07/11 01:59:55;;;;;;;14.68;9.55;;;;;;;14.01;100.00;102219.66;5236487;28;20052;-69
2022/07/11 02:02:26;;;;;;;19.40;9.15;;;;;;;13.97;100.00;102215.47;5243057;28;20039;-70
2022/07/11 02:04:58;;;;;;;14.18;9.07;;;;;;;13.96;100.00;102216.41;5245429;28;20082;-69
2022/07/11 02:10:19;;;;;;;16.58;9.18;;;;;;;13.93;100.00;102222.88;5245661;28;20124;-69
2022/07/11 02:12:50;;;;;;;14.80;9.13;;;;;;;13.86;100.00;102219.72;5254291;28;20033;-70
2022/07/11 02:15:21;;;;;;;13.43;9.05;;;;;;;13.85;100.00;102209.97;5243011;28;20173;-69
2022/07/11 02:17:53;;;;;;;13.57;8.98;;;;;;;13.82;100.00;102212.84;5240495;28;20033;-69
2022/07/11 02:20:24;;;;;;;13.63;9.95;;;;;;;13.84;100.00;102215.44;5240586;28;20025;-70
2022/07/11 02:22:57;;;;;;;15.82;10.25;;;;;;;13.83;100.00;102213.75;5237975;28;20027;-70
2022/07/11 02:25:28;;;;;;;15.50;10.05;;;;;;;13.78;100.00;102203.31;5239951;28;20044;-69
2022/07/11 02:28:00;;;;;;;15.52;9.73;;;;;;;13.81;100.00;102208.47;5240968;28;20055;-69
2022/07/11 02:30:32;;;;;;;16.27;10.35;;;;;;;13.81;100.00;102211.16;5236544;28;20043;-69
2022/07/11 02:33:04;;;;;;;14.95;10.15;;;;;;;13.87;100.00;102204.50;5237654;28;20029;-69
2022/07/11 02:35:37;;;;;;;12.88;9.63;;;;;;;13.87;100.00;102208.03;5236908;28;20056;-69
2022/07/11 02:38:08;;;;;;;15.55;9.70;;;;;;;13.80;100.00;102209.41;5239764;28;20034;-70
2022/07/11 02:40:39;;;;;;;19.48;10.43;;;;;;;13.88;100.00;102203.53;5234428;28;20463;-69
2022/07/11 02:43:11;;;;;;;15.63;9.93;;;;;;;13.87;100.00;102210.72;5236291;28;20047;-69
2022/07/11 02:45:42;;;;;;;16.35;9.45;;;;;;;13.89;100.00;102207.94;5235271;28;20033;-69
2022/07/11 02:48:13;;;;;;;16.00;9.82;;;;;;;13.85;100.00;102207.28;5235936;28;20395;-69
2022/07/11 02:50:45;;;;;;;13.65;9.73;;;;;;;13.89;100.00;102207.94;5239685;28;20477;-69
2022/07/11 02:53:16;;;;;;;14.20;10.60;;;;;;;13.90;100.00;102213.22;5239217;28;20021;-70
2022/07/11 02:55:48;;;;;;;18.23;10.60;;;;;;;13.89;100.00;102206.09;5241357;28;20501;-70
2022/07/11 02:58:19;;;;;;;18.20;10.98;;;;;;;13.91;100.00;102214.91;5235040;28;20467;-70
2022/07/11 03:00:51;;;;;;;16.60;11.15;;;;;;;13.94;100.00;102203.13;5239033;28;20037;-70
2022/07/11 03:03:22;;;;;;;17.08;10.90;;;;;;;13.97;100.00;102212.78;5239203;28;20021;-69
2022/07/11 03:05:53;;;;;;;19.00;11.25;;;;;;;14.00;100.00;102204.50;5244296;28;20526;-69
2022/07/11 03:08:25;;;;;;;17.13;11.02;;;;;;;14.04;100.00;102204.19;5234862;28;20025;-69
2022/07/11 03:10:57;;;;;;;14.98;10.23;;;;;;;14.09;100.00;102204.75;5243079;28;20515;-70
2022/07/11 03:13:28;;;;;;;20.15;11.55;;;;;;;14.08;100.00;102211.06;5238532;28;20029;-69
2022/07/11 03:16:00;;;;;;;18.23;11.52;;;;;;;14.10;100.00;102217.19;5237715;28;20029;-69
2022/07/11 03:18:31;;;;;;;18.35;12.15;;;;;;;14.15;100.00;102214.16;5239532;28;20092;-69
2022/07/11 03:21:03;;;;;;;17.02;10.48;;;;;;;14.14;100.00;102215.16;5241093;28;20156;-69
2022/07/11 03:23:34;;;;;;;21.35;11.07;;;;;;;14.22;100.00;102219.97;5239361;28;20090;-69
2022/07/11 03:26:06;;;;;;;15.90;10.30;;;;;;;14.25;100.00;102214.41;5233931;28;20033;-69
2022/07/11 03:28:37;;;;;;;17.27;11.10;;;;;;;14.25;100.00;102223.31;5230096;28;20041;-69
2022/07/11 03:31:08;;;;;;;18.23;11.05;;;;;;;14.30;100.00;102223.84;5235387;28;20072;-69
2022/07/11 03:33:40;;;;;;;16.30;10.90;;;;;;;14.28;100.00;102220.41;5244801;28;20146;-69
2022/07/11 03:36:11;;;;;;;17.30;10.18;;;;;;;14.34;100.00;102226.31;5235450;28;20132;-69
2022/07/11 03:38:42;;;;;;;14.80;10.70;;;;;;;14.29;100.00;102221.28;5232431;28;20124;-69
2022/07/11 03:41:14;;;;;;;16.75;10.32;;;;;;;14.37;100.00;102224.28;5246001;28;20033;-69
2022/07/11 03:43:45;;;;;;;17.15;10.05;;;;;;;14.33;100.00;102217.41;5231989;28;20029;-69
2022/07/11 03:46:16;;;;;;;16.15;10.52;;;;;;;14.36;100.00;102222.53;5232907;28;20030;-69
2022/07/11 03:48:48;;;;;;;19.60;11.45;;;;;;;14.36;100.00;102210.94;5231044;28;20753;-69
2022/07/11 03:51:19;;;;;;;17.67;10.02;;;;;;;14.43;100.00;102222.97;5238518;28;20048;-69
2022/07/11 03:53:50;;;;;;;15.30;10.13;;;;;;;14.42;100.00;102223.94;5233875;28;20089;-69
2022/07/11 03:56:22;;;;;;;16.52;9.98;;;;;;;14.44;100.00;102224.69;5240395;28;20044;-70
2022/07/11 03:58:53;;;;;;;16.33;9.50;;;;;;;14.46;100.00;102217.41;5232397;28;20132;-69
2022/07/11 04:01:25;;;;;;;15.63;10.65;;;;;;;14.50;100.00;102211.69;5240456;28;20043;-70
2022/07/11 04:03:56;;;;;;;13.18;9.93;;;;;;;14.52;100.00;102214.28;5245313;28;20394;-69
2022/07/11 04:06:27;;;;;;;15.23;9.68;;;;;;;14.56;100.00;102222.97;5244170;28;20057;-69
2022/07/11 04:08:58;;;;;;;15.50;9.93;;;;;;;14.62;100.00;102222.56;5240633;28;20039;-69
2022/07/11 04:11:30;;;;;;;16.70;10.07;;;;;;;14.60;100.00;102217.28;5242741;28;20124;-69
2022/07/11 04:14:01;;;;;;;14.23;9.93;;;;;;;14.62;100.00;102223.41;5245640;28;20112;-69
2022/07/11 04:16:32;;;;;;;15.57;10.00;;;;;;;14.65;100.00;102217.84;5239463;28;20673;-70
2022/07/11 04:19:04;;;;;;;16.25;10.25;;;;;;;14.67;100.00;102212.34;5235254;28;20075;-69
2022/07/11 04:21:35;;;;;;;12.27;9.45;;;;;;;14.70;100.00;102212.97;5240334;28;20022;-69
2022/07/11 04:24:06;;;;;;;16.10;10.10;;;;;;;14.76;100.00;102213.50;5239823;28;20063;-69
2022/07/11 04:26:38;;;;;;;16.63;9.65;;;;;;;14.77;100.00;102216.09;5238235;28;20436;-69
2022/07/11 04:29:09;;;;;;;14.85;9.45;;;;;;;14.76;100.00;102210.81;5239737;28;20030;-69
2022/07/11 04:31:40;;;;;;;15.07;9.35;;;;;;;14.76;100.00;102211.66;5242681;28;20033;-69
2022/07/11 04:34:11;;;;;;;15.85;9.13;;;;;;;14.77;100.00;102221.47;5243526;28;20578;-69
2022/07/11 04:36:43;;;;;;;16.05;9.40;;;;;;;14.83;100.00;102222.84;5244312;28;20048;-69
2022/07/11 04:39:15;;;;;;;14.65;9.10;;;;;;;14.86;100.00;102211.84;5244466;28;20038;-69
2022/07/11 04:41:46;;;;;;;12.82;8.70;;;;;;;14.94;100.00;102214.88;5238348;28;20041;-70
2022/07/11 04:44:17;;;;;;;15.07;9.25;;;;;;;14.92;100.00;102219.50;5239620;28;20044;-69
2022/07/11 04:46:49;;;;;;;14.18;9.00;;;;;;;14.90;100.00;102216.91;5245806;28;20538;-69
2022/07/11 04:49:20;;;;;;;14.57;8.93;;;;;;;14.89;100.00;102225.06;5238717;28;20060;-69
2022/07/11 04:51:51;;;;;;;14.60;9.60;;;;;;;14.88;100.00;102229.59;5238723;28;20071;-69
2022/07/11 04:54:22;;;;;;;14.63;8.95;;;;;;;14.89;100.00;102230.47;5238922;28;20099;-69
2022/07/11 04:56:54;;;;;;;15.57;9.25;;;;;;;14.92;100.00;102234.75;5243525;28;20031;-69
2022/07/11 04:59:26;;;;;;;12.68;8.90;;;;;;;14.99;100.00;102238.69;5238559;28;20231;-70
2022/07/11 05:01:57;;;;;;;11.50;8.82;;;;;;;14.96;100.00;102238.91;5241629;28;20039;-70
2022/07/11 05:04:28;;;;;;;13.73;8.80;;;;;;;14.94;100.00;102230.09;5234569;28;20386;-69
2022/07/11 05:07:00;;;;;;;15.75;9.07;;;;;;;14.97;100.00;102235.28;5240469;28;20395;-69
2022/07/11 05:09:31;;;;;;;15.77;8.93;;;;;;;15.10;100.00;102244.16;5238659;28;20148;-70
2022/07/11 05:12:03;;;;;;;17.00;8.50;;;;;;;15.06;100.00;102251.59;5239832;28;20037;-69
2022/07/11 05:14:34;;;;;;;14.32;8.60;;;;;;;15.06;100.00;102246.22;5246063;28;20503;-70
2022/07/11 05:17:05;;;;;;;16.00;8.70;;;;;;;15.14;100.00;102247.47;5247060;28;20032;-70
2022/07/11 05:19:36;;;;;;;12.80;8.93;;;;;;;15.12;100.00;102252.13;5238510;28;20036;-69
2022/07/11 05:22:08;;;;;;;13.20;8.50;;;;;;;15.15;100.00;102246.50;5242574;28;20116;-70
2022/07/11 05:24:39;;;;;;;14.98;9.05;;;;;;;15.15;100.00;102254.56;5246807;28;20035;-69
2022/07/11 05:27:19;;;;;;;13.35;8.13;;;;;;;15.23;100.00;102253.03;5250208;28;20025;-69
2022/07/11 05:29:53;;;;;;;12.95;8.13;;;;;;;15.25;100.00;102255.63;5236473;28;20032;-69
2022/07/11 05:32:25;;;;;;;15.70;8.25;;;;;;;15.24;100.00;102253.88;5247632;28;20044;-65
2022/07/11 05:35:01;;;;;;;13.02;8.30;;;;;;;15.31;100.00;102254.31;5239405;28;20386;-65
2022/07/11 05:37:33;;;;;;;16.10;8.10;;;;;;;15.42;100.00;102257.91;5255012;28;20060;-65
2022/07/11 05:40:05;;;;;;;14.38;8.63;;;;;;;15.41;100.00;102258.88;5237045;28;20040;-65
2022/07/11 05:42:36;;;;;;;12.82;8.07;;;;;;;15.45;100.00;102257.66;5235821;28;20036;-65
2022/07/11 05:45:09;;;;;;;13.60;8.63;;;;;;;15.48;100.00;102254.75;5234132;28;20033;-64
2022/07/11 05:47:40;;;;;;;21.33;8.90;;;;;;;15.49;100.00;102253.81;5240796;28;20033;-65
2022/07/11 05:50:11;;;;;;;17.88;9.10;;;;;;;15.62;100.00;102256.41;5235868;28;20072;-65
2022/07/11 05:52:43;;;;;;;12.18;8.60;;;;;;;15.62;100.00;102258.25;5240015;28;20395;-64
2022/07/11 05:55:14;;;;;;;13.60;8.50;;;;;;;15.66;100.00;102265.09;5240273;28;20657;-65
2022/07/11 05:57:48;;;;;;;13.80;9.00;;;;;;;15.72;100.00;102267.31;5247805;28;20064;-65
2022/07/11 06:00:22;;;;;;;11.88;8.00;;;;;;;15.75;100.00;102263.59;5240752;28;20676;-65
2022/07/11 06:02:54;;;;;;;15.77;9.20;;;;;;;15.73;100.00;102261.00;5244407;28;20026;-65
2022/07/11 06:05:25;;;;;;;13.05;8.25;;;;;;;15.77;100.00;102264.34;5240032;28;20090;-65
2022/07/11 06:10:46;;;;;;;14.15;9.10;;;;;;;15.83;100.00;102267.41;5248835;28;20041;-65
2022/07/11 06:13:17;;;;;;;13.55;8.85;;;;;;;15.91;100.00;102269.50;5242830;28;20025;-65
2022/07/11 06:15:49;;;;;;;13.52;8.77;;;;;;;15.91;100.00;102272.19;5239750;28;20380;-65
2022/07/11 06:18:20;;;;;;;12.63;9.30;;;;;;;15.92;100.00;102281.16;5239082;28;20082;-65
2022/07/11 06:20:51;;;;;;;14.20;8.48;;;;;;;15.87;100.00;102279.66;5236511;28;20043;-65
2022/07/11 06:23:23;;;;;;;14.80;8.80;;;;;;;15.91;100.00;102282.13;5250908;28;20037;-65
2022/07/11 06:25:55;;;;;;;12.95;9.70;;;;;;;15.93;100.00;102288.25;5238024;28;20028;-65
2022/07/11 06:28:26;;;;;;;14.25;8.70;;;;;;;15.94;100.00;102284.59;5237410;28;20495;-65
2022/07/11 06:30:58;;;;;;;14.73;8.85;;;;;;;15.98;100.00;102280.69;5242640;28;20029;-65
2022/07/11 06:33:29;;;;;;;13.43;8.40;;;;;;;16.08;100.00;102285.22;5249201;28;20134;-65
2022/07/11 06:36:01;;;;;;;10.75;8.48;;;;;;;16.06;100.00;102279.09;5235327;28;20025;-65
2022/07/11 06:38:33;;;;;;;9.68;8.10;;;;;;;16.03;100.00;102281.16;5246639;28;20044;-65
2022/07/11 06:41:06;;;;;;;14.02;9.48;;;;;;;16.13;100.00;102282.19;5246727;28;20744;-65
2022/07/11 06:43:37;;;;;;;12.07;7.90;;;;;;;16.15;100.00;102282.09;5245430;28;20036;-65
2022/07/11 06:46:08;;;;;;;10.80;7.88;;;;;;;16.19;100.00;102283.56;5240041;28;20028;-65
2022/07/11 06:48:40;;;;;;;10.20;7.03;;;;;;;16.24;100.00;102282.22;5242043;28;20024;-65
2022/07/11 06:51:11;;;;;;;10.55;6.93;;;;;;;16.32;100.00;102289.72;5238319;28;20025;-65
2022/07/11 06:53:42;;;;;;;8.70;6.50;;;;;;;16.34;100.00;102285.06;5242492;28;20040;-65
2022/07/11 06:56:13;;;;;;;9.40;6.45;;;;;;;16.41;100.00;102271.94;5238932;28;20025;-65
2022/07/11 06:58:45;;;;;;;9.85;6.50;;;;;;;16.43;100.00;102278.06;5241319;28;20053;-65
2022/07/11 07:01:16;;;;;;;9.63;6.20;;;;;;;16.50;100.00;102279.31;5247895;28;20031;-65
2022/07/11 07:03:47;;;;;;;7.30;5.50;;;;;;;16.56;100.00;102276.13;5247016;28;20614;-65
2022/07/11 07:06:19;;;;;;;9.90;5.90;;;;;;;16.58;100.00;102278.72;5246734;28;20041;-65
2022/07/11 07:08:50;;;;;;;10.65;5.72;;;;;;;16.59;100.00;102266.97;5244387;28;20033;-66
2022/07/11 07:11:21;;;;;;;7.07;5.75;;;;;;;16.65;100.00;102275.41;5238380;28;20030;-65
2022/07/11 07:13:53;;;;;;;6.75;5.32;;;;;;;16.74;100.00;102279.22;5251479;28;20112;-65
2022/07/11 07:16:24;;;;;;;7.82;5.78;;;;;;;16.80;100.00;102277.88;5245264;28;20028;-65
2022/07/11 07:18:55;;;;;;;8.48;6.40;;;;;;;16.85;100.00;102281.06;5249095;28;20025;-65
2022/07/11 07:21:27;;;;;;;8.50;5.43;;;;;;;16.85;100.00;102281.06;5244189;28;20102;-65
2022/07/11 07:23:58;;;;;;;8.48;6.03;;;;;;;16.84;100.00;102276.66;5236629;28;20411;-65
2022/07/11 07:26:29;;;;;;;8.85;5.95;;;;;;;16.94;100.00;102266.00;5238646;28;21047;-64
2022/07/11 07:29:00;;;;;;;8.00;6.25;;;;;;;16.89;100.00;102266.34;5238169;28;20451;-65
2022/07/11 07:31:32;;;;;;;8.00;6.15;;;;;;;17.05;100.00;102263.28;5239904;28;20025;-65
2022/07/11 07:34:04;;;;;;;8.75;6.47;;;;;;;17.08;100.00;102267.56;5239851;28;20040;-64
2022/07/11 07:36:36;;;;;;;9.25;6.07;;;;;;;17.33;100.00;102261.84;5255928;28;20033;-65
2022/07/11 07:39:07;;;;;;;8.23;6.22;;;;;;;17.50;100.00;102265.00;5243988;28;20036;-65
2022/07/11 07:41:38;;;;;;;9.00;6.28;;;;;;;17.53;100.00;102268.31;5251531;28;20029;-65
2022/07/11 07:44:10;;;;;;;8.65;5.85;;;;;;;17.46;99.31;102271.66;5248573;28;20276;-65
2022/07/11 07:46:42;;;;;;;8.02;6.03;;;;;;;17.75;100.00;102270.06;5248815;28;20021;-64
2022/07/11 07:49:13;;;;;;;7.60;5.82;;;;;;;17.95;100.00;102278.34;5248508;28;20035;-65
2022/07/11 07:51:45;;;;;;;7.65;5.72;;;;;;;18.18;98.39;102288.03;5248968;28;20043;-65
2022/07/11 07:54:16;;;;;;;6.95;5.25;;;;;;;18.37;97.72;102289.13;5249625;28;20112;-65
2022/07/11 07:56:47;;;;;;;6.95;5.90;;;;;;;18.33;95.32;102285.00;5246344;28;20306;-65
2022/07/11 07:59:18;;;;;;;7.75;5.78;;;;;;;18.55;94.93;102278.59;5245077;28;20041;-64
2022/07/11 08:01:50;;;;;;;7.55;5.35;;;;;;;18.53;94.83;102285.97;5252930;28;20025;-64
2022/07/11 08:04:23;;;;;;;7.82;5.07;;;;;;;18.65;96.15;102287.59;5252977;28;20044;-64
2022/07/11 08:06:54;;;;;;;8.55;5.78;;;;;;;18.65;94.27;102290.28;5247898;28;20043;-65
2022/07/11 08:09:26;;;;;;;7.18;5.30;;;;;;;18.55;92.91;102295.66;5252245;28;20043;-65
2022/07/11 08:11:57;;;;;;;5.97;5.10;;;;;;;18.42;92.88;102293.16;5244957;28;20368;-64
2022/07/11 08:14:31;;;;;;;8.15;4.90;;;;;;;18.53;93.05;102285.97;5254260;28;20048;-64
2022/07/11 08:17:03;;;;;;;6.35;4.57;;;;;;;18.45;92.15;102289.34;5251171;28;20540;-64
2022/07/11 08:19:34;;;;;;;7.82;5.20;;;;;;;18.60;93.85;102289.81;5250856;28;20027;-64
2022/07/11 08:22:05;;;;;;;6.32;4.15;;;;;;;18.71;93.38;102297.00;5249205;28;20090;-65
2022/07/11 08:24:37;;;;;;;6.13;4.82;;;;;;;18.41;91.63;102288.75;5250947;28;20149;-65
2022/07/11 08:27:08;;;;;;;8.65;5.30;;;;;;;18.45;92.89;102292.06;5243373;28;20060;-65
2022/07/11 08:29:40;;;;;;;7.75;5.38;;;;;;;18.57;92.48;102298.22;5251396;28;20109;-65
2022/07/11 08:32:12;;;;;;;8.30;5.40;;;;;;;18.57;92.68;102293.66;5251561;28;20402;-65
2022/07/11 08:34:45;;;;;;;9.38;5.00;;;;;;;18.52;92.43;102293.19;5243994;28;20033;-65
2022/07/11 08:37:16;;;;;;;7.43;5.68;;;;;;;18.46;92.18;102291.03;5246235;28;20037;-64
2022/07/11 08:39:47;;;;;;;8.93;5.85;;;;;;;18.53;93.54;102294.94;5252467;28;20033;-65
2022/07/11 08:42:19;;;;;;;10.02;6.60;;;;;;;18.57;93.96;102298.22;5244032;28;20032;-65
2022/07/11 08:44:51;;;;;;;8.57;6.97;;;;;;;18.60;93.11;102295.22;5251196;28;20491;-64
2022/07/11 08:47:23;;;;;;;10.80;7.13;;;;;;;18.63;93.67;102296.84;5245714;28;20056;-64
2022/07/11 08:49:58;;;;;;;7.93;6.75;;;;;;;18.63;94.16;102294.13;5247597;28;21545;-65
2022/07/11 08:52:31;;;;;;;7.55;6.35;;;;;;;18.72;95.15;102285.22;5246879;28;20036;-64
2022/07/11 08:55:06;;;;;;;8.83;7.17;;;;;;;18.83;94.00;102293.25;5251019;28;20035;-64
2022/07/11 08:57:38;;;;;;;9.88;7.57;;;;;;;18.84;92.66;102297.66;5247868;28;20029;-65
2022/07/11 09:00:09;;;;;;;10.35;7.55;;;;;;;19.05;93.03;102296.75;5249361;28;20032;-64
2022/07/11 09:02:42;;;;;;;11.25;7.75;;;;;;;18.94;91.17;102287.72;5248319;28;20075;-64
2022/07/11 09:05:13;;;;;;;11.40;8.40;;;;;;;18.81;90.09;102289.81;5253924;28;20025;-64
2022/07/11 09:07:47;;;;;;;9.93;8.10;;;;;;;19.03;91.27;102290.63;5249292;28;20036;-65
2022/07/11 09:10:18;;;;;;;10.50;8.40;;;;;;;19.04;91.29;102287.75;5249019;28;20044;-64
2022/07/11 09:13:01;;;;;;;11.25;8.68;;;;;;;19.28;91.25;102283.84;5250598;28;20492;-64
2022/07/11 09:15:38;;;;;;;15.23;8.95;;;;;;;19.34;89.49;102283.28;5246667;28;20090;-65
2022/07/11 09:18:30;;;;;;;11.73;8.25;;;;;;;19.82;91.28;102278.94;5246274;28;20475;-64
2022/07/11 09:26:52;;;;;;;11.25;8.25;;;;;;;20.31;83.80;102272.44;5241803;28;20037;-64
2022/07/11 09:29:27;;;;;;;11.50;8.05;;;;;;;20.49;83.23;102272.53;5252128;28;20028;-65
2022/07/11 09:31:58;;;;;;;9.77;7.30;;;;;;;20.77;80.70;102267.19;5246464;28;20051;-64
2022/07/11 09:34:30;;;;;;;8.70;7.05;;;;;;;21.02;82.47;102275.66;5248896;28;20025;-64
2022/07/11 09:37:02;;;;;;;9.93;8.38;;;;;;;21.12;81.83;102279.16;5246336;28;20080;-64
2022/07/11 09:39:33;;;;;;;10.65;7.60;;;;;;;20.89;79.54;102267.84;5251225;28;20119;-65
2022/07/11 09:42:04;;;;;;;12.43;8.30;;;;;;;20.80;81.04;102275.00;5245170;28;20033;-64
2022/07/11 09:44:36;;;;;;;9.13;7.78;;;;;;;20.63;80.46;102273.09;5245867;28;20059;-65
2022/07/11 09:47:10;;;;;;;12.00;7.85;;;;;;;20.53;80.76;102273.94;5247924;28;20171;-64
2022/07/11 09:49:41;;;;;;;10.15;7.78;;;;;;;20.42;80.38;102270.56;5248956;28;20033;-64
2022/07/11 09:52:15;;;;;;;9.80;7.75;;;;;;;20.50;80.60;102273.38;5248326;28;20029;-64
2022/07/11 09:54:56;;;;;;;9.25;7.45;;;;;;;20.45;81.88;102276.53;5252680;28;20040;-65
2022/07/11 09:57:34;;;;;;;9.75;7.40;;;;;;;20.59;81.56;102274.38;5244655;28;20040;-64
2022/07/11 10:00:11;;;;;;;11.32;7.38;;;;;;;20.60;81.70;102270.69;5250333;28;20514;-65
2022/07/11 10:02:43;;;;;;;9.07;7.00;;;;;;;20.58;80.55;102273.50;5243837;28;20375;-64
2022/07/11 10:05:15;;;;;;;11.27;7.45;;;;;;;20.61;82.90;102280.53;5240513;28;20053;-64
2022/07/11 10:07:46;;;;;;;10.27;7.70;;;;;;;20.74;83.04;102271.03;5249629;28;20116;-64
2022/07/11 10:10:18;;;;;;;12.38;8.98;;;;;;;20.76;83.03;102279.88;5249443;28;20048;-65
2022/07/11 10:12:51;;;;;;;11.15;7.82;;;;;;;20.71;82.15;102284.91;5250481;28;20021;-64
2022/07/11 10:15:24;;;;;;;13.52;7.55;;;;;;;20.74;81.38;102273.75;5249187;28;20063;-64
2022/07/11 10:18:18;;;;;;;9.32;7.00;;;;;;;21.01;83.96;102282.91;5249411;28;20086;-65
2022/07/11 10:21:12;;;;;;;10.43;6.93;;;;;;;21.09;82.69;102282.16;5245156;28;20036;-64
2022/07/11 10:23:56;;;;;;;11.10;7.38;;;;;;;21.42;82.44;102275.25;5247694;28;20108;-64
2022/07/11 10:26:40;;;;;;;10.05;7.55;;;;;;;21.50;79.20;102282.66;5240498;28;20060;-64
2022/07/11 10:29:19;;;;;;;9.02;6.75;;;;;;;21.71;78.76;102282.34;5246512;28;20490;-64
2022/07/11 10:32:05;;;;;;;7.28;6.13;;;;;;;21.73;79.79;102278.44;5249054;28;20451;-65
2022/07/11 10:34:38;;;;;;;8.80;7.28;;;;;;;21.67;79.15;102284.50;5248903;28;20029;-64
2022/07/11 10:37:11;;;;;;;10.13;6.40;;;;;;;21.58;76.96;102290.88;5249576;28;20552;-64
2022/07/11 10:39:58;;;;;;;9.97;7.73;;;;;;;21.61;78.50;102279.72;5250684;28;20318;-64
2022/07/11 10:42:41;;;;;;;12.65;8.57;;;;;;;21.18;77.50;102293.97;5245467;28;20087;-64
2022/07/11 10:45:12;;;;;;;11.43;7.82;;;;;;;21.38;77.92;102283.81;5247109;28;20103;-65
2022/07/11 10:47:44;;;;;;;9.63;7.40;;;;;;;21.37;77.85;102284.84;5246649;28;20028;-65
2022/07/11 10:50:21;;;;;;;10.60;7.53;;;;;;;21.47;77.61;102282.94;5242945;28;20017;-64
2022/07/11 10:52:57;;;;;;;9.85;6.65;;;;;;;21.80;79.25;102297.69;5251119;28;20034;-65
2022/07/11 10:55:35;;;;;;;10.15;6.15;;;;;;;21.73;75.96;102285.75;5245676;28;20431;-64
2022/07/11 10:58:28;;;;;;;7.72;6.00;;;;;;;21.77;74.38;102286.31;5243124;28;20102;-65
2022/07/11 11:01:14;;;;;;;8.35;5.53;;;;;;;21.89;75.12;102293.19;5242038;28;20666;-64
2022/07/11 11:03:45;;;;;;;9.15;6.95;;;;;;;21.70;73.04;102284.19;5244241;28;20470;-64
2022/07/11 11:06:20;;;;;;;7.75;6.03;;;;;;;21.40;74.73;102285.41;5247866;28;20029;-65
2022/07/11 11:08:51;;;;;;;6.68;5.20;;;;;;;21.45;75.65;102287.69;5247617;28;20441;-64
2022/07/11 11:11:23;;;;;;;10.43;4.95;;;;;;;21.42;75.92;102291.53;5250789;28;20055;-64
2022/07/11 11:14:18;;;;;;;6.38;4.75;;;;;;;21.36;76.85;102294.84;5250549;28;20033;-64
2022/07/11 11:16:50;;;;;;;8.13;4.72;;;;;;;21.33;77.19;102284.31;5251619;28;20032;-64
2022/07/11 11:19:46;;;;;;;5.32;4.07;;;;;;;21.35;77.28;102288.56;5252652;28;20105;-65
2022/07/11 11:22:20;;;;;;;5.18;3.60;;;;;;;21.49;77.54;102294.50;5253513;28;20116;-64
2022/07/11 11:24:54;;;;;;;7.03;4.05;;;;;;;21.54;78.36;102297.63;5250760;28;20116;-63
2022/07/11 11:27:26;;;;;;;5.97;3.80;;;;;;;21.82;79.15;102295.69;5250140;28;20036;-64
2022/07/11 11:29:57;;;;;;;5.43;3.80;;;;;;;21.97;75.86;102293.25;5247829;28;20036;-64
2022/07/11 11:32:34;;;;;;;7.25;3.88;;;;;;;22.09;75.17;102296.56;5254252;28;20463;-64
2022/07/11 11:35:06;;;;;;;7.18;4.22;;;;;;;22.03;73.98;102303.47;5249843;28;20083;-65
2022/07/11 11:37:38;;;;;;;6.28;4.10;;;;;;;22.06;74.65;102292.31;5249272;28;20029;-63
2022/07/11 11:40:09;;;;;;;5.65;4.50;;;;;;;21.98;74.53;102288.69;5249433;28;20111;-64
2022/07/11 11:42:40;;;;;;;5.22;3.47;;;;;;;22.26;74.06;102289.41;5250778;28;20116;-64
2022/07/11 11:45:12;;;;;;;7.80;4.10;;;;;;;22.48;72.63;102288.91;5250458;28;20024;-65
2022/07/11 11:47:50;;;;;;;5.60;3.33;;;;;;;22.77;74.41;102287.69;5249424;28;20581;-64
2022/07/11 11:50:22;;;;;;;5.68;3.60;;;;;;;22.86;71.41;102280.44;5249254;28;20491;-64